Annandale, Pennsylvania
Current Conditions -  °F | °C
As of 11:15 PM on Sunday 25 Jan 2015 (Local Time) from KFKL Reporting Station
Overcast Overcast  
Wind Chill:   Ceiling: 1500
Heat Index: 19°   Visibility: 1.7mi
Dew Point: 16°   Wind: 9mph
Humidity: 86%   Direction: 30°NNE
Pressure: 29.84"   Gusts: NA
Location:  41.1142°N, 79.9031°W
Report Text: KFKL 260415Z AUTO 03008KT 1 3/4SM OVC015 M07/M09 A2984 RMK AO1
Loading
Personal Weather Stations






























Interactive Weather Map New forecast layout! Learn more

10-Day Weather Forecast

Advertisements
Track Severe Weather on mobile